Time,TemperatureF,DewpointF,PressureIn,WindDirection,WindDirectionDegrees,WindSpeedMPH,WindSpeedGustMPH,Humidity,HourlyPrecipIn,Conditions,Clouds,dailyrainin,SoftwareType,DateUTC
2013-06-07 00:00:00,69.8,49.8,29.79,South,180,0.0,0.0,49,0.00,,---,0.00,VWS V13.01,2013-06-07 07:00:00,
2013-06-07 00:30:00,69.3,49.3,29.80,South,179,0.0,0.0,49,0.00,,---,0.00,VWS V13.01,2013-06-07 07:30:00,
2013-06-07 01:00:00,69.0,49.1,29.78,South,172,0.0,0.0,49,0.00,,---,0.00,VWS V13.01,2013-06-07 08:00:00,
2013-06-07 01:30:00,68.3,49.0,29.78,SSE,166,0.0,0.0,50,0.00,,---,0.00,VWS V13.01,2013-06-07 08:30:00,
2013-06-07 02:00:00,67.4,49.2,29.78,SSE,156,0.0,0.0,52,0.00,,---,0.00,VWS V13.01,2013-06-07 09:00:00,
2013-06-07 02:30:00,66.5,49.8,29.77,SSE,151,0.0,0.0,55,0.00,,---,0.00,VWS V13.01,2013-06-07 09:30:00,
2013-06-07 03:00:00,66.1,48.5,29.76,SSE,150,0.0,0.0,53,0.00,,---,0.00,VWS V13.01,2013-06-07 10:00:00,
2013-06-07 03:30:00,64.0,47.0,29.77,SSE,150,0.0,0.0,54,0.00,,---,0.00,VWS V13.01,2013-06-07 10:30:00,
2013-06-07 04:00:00,63.7,47.2,29.75,NW,317,0.0,0.0,55,0.00,,---,0.00,VWS V13.01,2013-06-07 11:00:00,
2013-06-07 04:30:00,67.0,50.3,29.75,SSW,208,0.0,0.0,55,0.00,,---,0.00,VWS V13.01,2013-06-07 11:30:00,
2013-06-07 05:00:00,69.2,51.4,29.76,South,189,0.0,0.0,53,0.00,,---,0.00,VWS V13.01,2013-06-07 12:00:00,
2013-06-07 05:30:00,67.1,47.9,29.75,SE,128,0.0,0.0,50,0.00,,---,0.00,VWS V13.01,2013-06-07 12:30:00,
2013-06-07 06:00:00,65.8,51.2,29.76,South,179,0.0,0.0,59,0.00,,---,0.00,VWS V13.01,2013-06-07 13:00:00,
2013-06-07 06:30:00,71.3,48.3,29.77,NNE,30,0.0,0.0,44,0.00,,---,0.00,VWS V13.01,2013-06-07 13:30:00,
2013-06-07 07:00:00,68.3,48.4,29.78,NNE,14,0.0,0.0,49,0.00,,---,0.00,VWS V13.01,2013-06-07 14:00:00,
2013-06-07 07:30:00,72.7,51.9,29.77,NNE,14,0.0,0.0,48,0.00,,---,0.00,VWS V13.01,2013-06-07 14:30:00,
2013-06-07 08:00:00,79.9,51.3,29.78,West,273,0.0,0.0,37,0.00,,---,0.00,VWS V13.01,2013-06-07 15:00:00,
2013-06-07 08:30:00,82.0,52.4,29.78,WSW,237,0.0,0.0,36,0.00,,---,0.00,VWS V13.01,2013-06-07 15:30:00,
2013-06-07 09:00:00,84.6,51.5,29.78,SSW,211,0.0,0.0,32,0.00,,---,0.00,VWS V13.01,2013-06-07 16:00:00,
2013-06-07 09:30:00,87.9,49.8,29.77,South,183,0.0,0.0,27,0.00,,---,0.00,VWS V13.01,2013-06-07 16:30:00,
2013-06-07 10:00:00,91.8,49.9,29.77,SE,130,1.0,6.0,24,0.00,,---,0.00,VWS V13.01,2013-06-07 17:00:00,
2013-06-07 10:30:00,93.6,49.1,29.78,ESE,106,3.0,6.0,22,0.00,,---,0.00,VWS V13.01,2013-06-07 17:30:00,
2013-06-07 11:00:00,95.1,50.3,29.78,NE,37,1.0,6.0,22,0.00,,---,0.00,VWS V13.01,2013-06-07 18:00:00,
2013-06-07 11:30:00,97.0,50.6,29.77,NE,51,2.0,7.0,21,0.00,,---,0.00,VWS V13.01,2013-06-07 18:30:00,
2013-06-07 12:00:00,98.0,48.8,29.76,North,8,2.0,11.0,19,0.00,,---,0.00,VWS V13.01,2013-06-07 19:00:00,
2013-06-07 12:30:00,0.0,45.0,29.75,North,0,3.0,12.0,0,0.00,,---,0.00,VWS V13.01,2013-06-07 19:30:00,
2013-06-07 13:00:00,99.0,40.9,29.75,North,0,5.0,12.0,16,0.00,,---,0.00,VWS V13.01,2013-06-07 20:00:00,
2013-06-07 13:30:00,100.6,41.9,29.74,North,0,4.0,12.0,13,0.00,,---,0.00,VWS V13.01,2013-06-07 20:30:00,
2013-06-07 14:00:00,101.9,37.9,29.73,North,0,4.0,12.0,13,0.00,,---,0.00,VWS V13.01,2013-06-07 21:00:00,
2013-06-07 14:30:00,102.3,38.7,29.72,North,0,3.0,10.0,11,0.00,,---,0.00,VWS V13.01,2013-06-07 21:30:00,
2013-06-07 15:00:00,103.4,39.1,29.71,North,0,3.0,13.0,11,0.00,,---,0.00,VWS V13.01,2013-06-07 22:00:00,
2013-06-07 15:30:00,103.9,36.9,29.71,NNW,338,5.0,15.0,11,0.00,,---,0.00,VWS V13.01,2013-06-07 22:30:00,
2013-06-07 16:00:00,104.2,37.2,29.68,North,0,5.0,16.0,10,0.00,,---,0.00,VWS V13.01,2013-06-07 23:00:00,
2013-06-07 16:30:00,104.6,37.3,29.68,NNE,22,4.0,11.0,10,0.00,,---,0.00,VWS V13.01,2013-06-07 23:30:00,
2013-06-07 17:00:00,104.8,37.5,29.67,North,0,4.0,12.0,10,0.00,,---,0.00,VWS V13.01,2013-06-08 00:00:00,
2013-06-07 17:30:00,105.0,43.3,29.67,SW,225,10.0,21.0,10,0.00,,---,0.00,VWS V13.01,2013-06-08 00:30:00,
2013-06-07 18:00:00,103.8,39.4,29.68,SSW,202,11.0,24.0,13,0.00,,---,0.00,VWS V13.01,2013-06-08 01:00:00,
2013-06-07 18:30:00,101.4,43.3,29.69,South,180,6.0,25.0,12,0.00,,---,0.00,VWS V13.01,2013-06-08 01:30:00,
2013-06-07 19:00:00,99.0,52.8,29.70,South,180,0.0,0.0,15,0.00,,---,0.00,VWS V13.01,2013-06-08 02:00:00,
2013-06-07 19:30:00,98.1,53.2,29.70,South,180,0.0,0.0,22,0.00,,---,0.00,VWS V13.01,2013-06-08 02:30:00,
2013-06-07 20:00:00,97.1,55.5,29.71,South,180,0.0,0.0,23,0.00,,---,0.00,VWS V13.01,2013-06-08 03:00:00,
2013-06-07 20:30:00,94.6,53.3,29.71,South,180,0.0,0.0,27,0.00,,---,0.00,VWS V13.01,2013-06-08 03:30:00,
2013-06-07 21:00:00,90.9,54.2,29.72,South,180,0.0,0.0,28,0.00,,---,0.00,VWS V13.01,2013-06-08 04:00:00,
2013-06-07 21:30:00,88.7,54.2,29.73,South,180,0.0,0.0,31,0.00,,---,0.00,VWS V13.01,2013-06-08 04:30:00,
2013-06-07 22:00:00,86.7,53.5,29.73,South,180,0.0,0.0,33,0.00,,---,0.00,VWS V13.01,2013-06-08 05:00:00,
2013-06-07 22:30:00,85.0,53.3,29.73,SSE,158,0.0,7.0,34,0.00,,---,0.00,VWS V13.01,2013-06-08 05:30:00,
2013-06-07 23:00:00,83.8,53.3,29.73,SSW,202,5.0,9.0,35,0.00,,---,0.00,VWS V13.01,2013-06-08 06:00:00,
2013-06-07 23:30:00,83.0,51.2,29.72,SSW,202,4.0,8.0,36,0.00,,---,0.00,VWS V13.01,2013-06-08 06:30:00,